sensor_id;sensor_type;location;lat;lon;timestamp;pressure;altitude;pressure_sealevel;temperature;humidity
21449;BME280;10885;52.830;13.788;2024-01-30T06:33:27;102442.88;;;0.15;80.89
21449;BME280;10885;52.830;13.788;2024-01-30T06:38:30;102439.34;;;0.08;80.70
21449;BME280;10885;52.830;13.788;2024-01-30T06:43:32;102445.97;;;-0.06;80.55
21449;BME280;10885;52.830;13.788;2024-01-30T06:48:35;102444.47;;;-0.11;81.23
21449;BME280;10885;52.830;13.788;2024-01-30T06:53:38;102453.34;;;-0.07;81.16
21449;BME280;10885;52.830;13.788;2024-01-30T06:58:41;102441.06;;;-0.11;81.31
21449;BME280;10885;52.830;13.788;2024-01-30T07:03:43;102444.84;;;-0.08;81.60
21449;BME280;10885;52.830;13.788;2024-01-30T07:08:46;102434.31;;;-0.05;82.38
21449;BME280;10885;52.830;13.788;2024-01-30T07:13:50;102429.50;;;0.09;81.77
21449;BME280;10885;52.830;13.788;2024-01-30T07:18:53;102430.97;;;0.14;81.95
21449;BME280;10885;52.830;13.788;2024-01-30T07:23:55;102442.16;;;0.16;81.70
21449;BME280;10885;52.830;13.788;2024-01-30T07:28:58;102436.94;;;0.15;81.80
21449;BME280;10885;52.830;13.788;2024-01-30T07:34:01;102436.34;;;0.23;81.52
21449;BME280;10885;52.830;13.788;2024-01-30T07:39:03;102436.75;;;0.39;81.47
21449;BME280;10885;52.830;13.788;2024-01-30T07:44:07;102436.44;;;0.43;80.46
21449;BME280;10885;52.830;13.788;2024-01-30T07:49:09;102432.22;;;0.49;80.17
21449;BME280;10885;52.830;13.788;2024-01-30T07:54:12;102432.09;;;0.55;80.52
21449;BME280;10885;52.830;13.788;2024-01-30T07:59:15;102420.41;;;0.68;80.15
21449;BME280;10885;52.830;13.788;2024-01-30T08:04:18;102420.47;;;0.88;80.43
21449;BME280;10885;52.830;13.788;2024-01-30T08:09:20;102410.28;;;1.14;79.95
21449;BME280;10885;52.830;13.788;2024-01-30T08:14:23;102413.34;;;1.31;79.48
21449;BME280;10885;52.830;13.788;2024-01-30T08:19:26;102412.75;;;1.47;79.87
21449;BME280;10885;52.830;13.788;2024-01-30T08:24:28;102418.53;;;1.66;79.11
21449;BME280;10885;52.830;13.788;2024-01-30T08:29:31;102405.47;;;1.83;78.60
21449;BME280;10885;52.830;13.788;2024-01-30T08:34:34;102405.38;;;1.95;78.50
21449;BME280;10885;52.830;13.788;2024-01-30T08:39:37;102408.25;;;2.18;77.88
21449;BME280;10885;52.830;13.788;2024-01-30T08:44:40;102403.31;;;2.40;77.22
21449;BME280;10885;52.830;13.788;2024-01-30T08:49:43;102399.13;;;2.75;76.72
21449;BME280;10885;52.830;13.788;2024-01-30T08:54:46;102379.00;;;3.18;74.62
21449;BME280;10885;52.830;13.788;2024-01-30T08:59:49;102393.69;;;3.49;74.39
21449;BME280;10885;52.830;13.788;2024-01-30T09:04:52;102396.38;;;3.87;73.43
21449;BME280;10885;52.830;13.788;2024-01-30T09:09:54;102395.25;;;4.13;72.72
21449;BME280;10885;52.830;13.788;2024-01-30T09:14:57;102401.47;;;4.46;71.85
21449;BME280;10885;52.830;13.788;2024-01-30T09:20:00;102400.13;;;4.71;70.11
21449;BME280;10885;52.830;13.788;2024-01-30T09:25:03;102393.78;;;5.05;69.11
21449;BME280;10885;52.830;13.788;2024-01-30T09:30:06;102388.19;;;5.30;68.25
21449;BME280;10885;52.830;13.788;2024-01-30T09:35:09;102398.22;;;5.45;67.69
21449;BME280;10885;52.830;13.788;2024-01-30T09:40:13;102388.75;;;5.51;67.38
21449;BME280;10885;52.830;13.788;2024-01-30T09:45:18;102395.03;;;5.62;66.81
21449;BME280;10885;52.830;13.788;2024-01-30T09:50:20;102395.44;;;5.73;65.84
21449;BME280;10885;52.830;13.788;2024-01-30T09:55:23;102390.91;;;5.94;65.03
21449;BME280;10885;52.830;13.788;2024-01-30T10:00:26;102377.00;;;6.06;64.94
21449;BME280;10885;52.830;13.788;2024-01-30T10:05:31;102377.72;;;6.05;65.30
21449;BME280;10885;52.830;13.788;2024-01-30T10:10:36;102379.34;;;6.05;64.38
21449;BME280;10885;52.830;13.788;2024-01-30T10:15:39;102371.44;;;6.17;64.12
21449;BME280;10885;52.830;13.788;2024-01-30T10:20:42;102372.22;;;6.41;63.29
21449;BME280;10885;52.830;13.788;2024-01-30T10:25:45;102367.41;;;6.51;63.39
21449;BME280;10885;52.830;13.788;2024-01-30T10:30:57;102359.09;;;6.61;63.25
21449;BME280;10885;52.830;13.788;2024-01-30T10:36:06;102367.38;;;6.67;61.92
21449;BME280;10885;52.830;13.788;2024-01-30T10:41:11;102355.47;;;6.75;62.09
21449;BME280;10885;52.830;13.788;2024-01-30T10:46:18;102351.31;;;6.84;62.23
21449;BME280;10885;52.830;13.788;2024-01-30T10:51:28;102350.16;;;7.05;60.78
21449;BME280;10885;52.830;13.788;2024-01-30T10:56:32;102353.28;;;7.27;60.26
21449;BME280;10885;52.830;13.788;2024-01-30T11:01:35;102343.97;;;7.28;59.57
21449;BME280;10885;52.830;13.788;2024-01-30T11:06:42;102337.16;;;7.44;59.37
21449;BME280;10885;52.830;13.788;2024-01-30T11:11:52;102333.44;;;7.58;60.20
21449;BME280;10885;52.830;13.788;2024-01-30T11:16:59;102326.91;;;7.77;58.58
21449;BME280;10885;52.830;13.788;2024-01-30T11:22:02;102331.47;;;7.97;57.57
21449;BME280;10885;52.830;13.788;2024-01-30T11:27:09;102313.47;;;8.13;58.01
21449;BME280;10885;52.830;13.788;2024-01-30T11:32:22;102313.78;;;8.34;58.89
21449;BME280;10885;52.830;13.788;2024-01-30T11:37:26;102316.50;;;8.53;55.92
21449;BME280;10885;52.830;13.788;2024-01-30T11:42:30;102313.47;;;8.74;55.16
21449;BME280;10885;52.830;13.788;2024-01-30T11:47:35;102317.94;;;9.31;54.59
21449;BME280;10885;52.830;13.788;2024-01-30T11:52:38;102314.75;;;9.79;53.13
21449;BME280;10885;52.830;13.788;2024-01-30T11:57:41;102308.78;;;9.69;51.66
21449;BME280;10885;52.830;13.788;2024-01-30T12:02:49;102308.69;;;9.59;52.90
21449;BME280;10885;52.830;13.788;2024-01-30T12:07:52;102287.56;;;9.70;52.97
21449;BME280;10885;52.830;13.788;2024-01-30T12:12:55;102287.28;;;9.67;53.95
21449;BME280;10885;52.830;13.788;2024-01-30T12:18:06;102286.69;;;9.42;54.05
21449;BME280;10885;52.830;13.788;2024-01-30T12:23:12;102286.06;;;9.45;52.54
21449;BME280;10885;52.830;13.788;2024-01-30T12:28:15;102265.16;;;9.40;51.63
21449;BME280;10885;52.830;13.788;2024-01-30T12:33:18;102265.16;;;9.40;52.31
21449;BME280;10885;52.830;13.788;2024-01-30T12:38:21;102258.25;;;9.39;52.61
21449;BME280;10885;52.830;13.788;2024-01-30T12:43:24;102248.91;;;9.48;52.52
21449;BME280;10885;52.830;13.788;2024-01-30T12:48:39;102243.78;;;9.76;53.27
21449;BME280;10885;52.830;13.788;2024-01-30T12:53:42;102245.94;;;9.90;52.34
21449;BME280;10885;52.830;13.788;2024-01-30T12:58:45;102249.84;;;9.87;51.57
21449;BME280;10885;52.830;13.788;2024-01-30T13:03:53;102236.25;;;9.96;51.11
21449;BME280;10885;52.830;13.788;2024-01-30T13:08:56;102234.38;;;10.04;51.33
21449;BME280;10885;52.830;13.788;2024-01-30T13:14:00;102231.25;;;10.17;52.07
21449;BME280;10885;52.830;13.788;2024-01-30T13:19:02;102238.59;;;10.04;51.28
21449;BME280;10885;52.830;13.788;2024-01-30T13:24:06;102236.88;;;9.94;52.03
21449;BME280;10885;52.830;13.788;2024-01-30T13:29:08;102240.47;;;9.96;50.99
21449;BME280;10885;52.830;13.788;2024-01-30T13:34:11;102222.91;;;10.09;51.79
21449;BME280;10885;52.830;13.788;2024-01-30T13:39:15;102224.63;;;10.00;50.82
21449;BME280;10885;52.830;13.788;2024-01-30T13:44:17;102222.50;;;9.86;51.51
21449;BME280;10885;52.830;13.788;2024-01-30T13:49:20;102210.13;;;9.71;51.56
21449;BME280;10885;52.830;13.788;2024-01-30T13:54:23;102221.22;;;9.53;52.29
21449;BME280;10885;52.830;13.788;2024-01-30T13:59:25;102221.44;;;9.37;53.00
21449;BME280;10885;52.830;13.788;2024-01-30T14:04:28;102220.88;;;9.31;54.08
21449;BME280;10885;52.830;13.788;2024-01-30T14:09:31;102216.63;;;9.12;54.28
21449;BME280;10885;52.830;13.788;2024-01-30T14:14:35;102213.34;;;9.05;54.93
21449;BME280;10885;52.830;13.788;2024-01-30T14:19:37;102204.47;;;9.01;54.38
21449;BME280;10885;52.830;13.788;2024-01-30T14:24:40;102205.75;;;8.87;55.30
21449;BME280;10885;52.830;13.788;2024-01-30T14:29:43;102201.44;;;8.77;55.74
21449;BME280;10885;52.830;13.788;2024-01-30T14:34:46;102195.59;;;8.70;56.45
21449;BME280;10885;52.830;13.788;2024-01-30T14:39:49;102198.19;;;8.61;56.61
21449;BME280;10885;52.830;13.788;2024-01-30T14:44:52;102204.84;;;8.50;56.96
21449;BME280;10885;52.830;13.788;2024-01-30T14:49:55;102209.63;;;8.47;57.19
21449;BME280;10885;52.830;13.788;2024-01-30T14:54:57;102206.34;;;8.40;57.88
21449;BME280;10885;52.830;13.788;2024-01-30T15:00:00;102202.31;;;8.33;57.78
21449;BME280;10885;52.830;13.788;2024-01-30T15:05:04;102206.66;;;8.25;58.24
21449;BME280;10885;52.830;13.788;2024-01-30T15:10:08;102197.69;;;8.11;58.86
21449;BME280;10885;52.830;13.788;2024-01-30T15:15:12;102200.38;;;8.04;59.31
21449;BME280;10885;52.830;13.788;2024-01-30T15:20:14;102194.25;;;7.93;59.56
21449;BME280;10885;52.830;13.788;2024-01-30T15:25:19;102202.47;;;7.82;60.16
21449;BME280;10885;52.830;13.788;2024-01-30T15:30:21;102196.06;;;7.77;60.21
21449;BME280;10885;52.830;13.788;2024-01-30T15:35:24;102209.97;;;7.72;60.54
21449;BME280;10885;52.830;13.788;2024-01-30T15:40:27;102211.91;;;7.66;61.04
21449;BME280;10885;52.830;13.788;2024-01-30T15:45:31;102208.75;;;7.60;61.39
21449;BME280;10885;52.830;13.788;2024-01-30T15:50:34;102213.88;;;7.51;61.99
21449;BME280;10885;52.830;13.788;2024-01-30T15:55:37;102219.06;;;7.44;62.19
21449;BME280;10885;52.830;13.788;2024-01-30T16:00:40;102216.81;;;7.38;62.20
21449;BME280;10885;52.830;13.788;2024-01-30T16:05:43;102218.59;;;7.30;62.70
21449;BME280;10885;52.830;13.788;2024-01-30T16:10:46;102222.19;;;7.24;63.19
21449;BME280;10885;52.830;13.788;2024-01-30T16:15:48;102208.56;;;7.23;63.51
21449;BME280;10885;52.830;13.788;2024-01-30T16:20:51;102207.94;;;7.26;63.46
21449;BME280;10885;52.830;13.788;2024-01-30T16:25:54;102209.13;;;7.21;63.92
21449;BME280;10885;52.830;13.788;2024-01-30T16:30:57;102217.78;;;7.14;64.18
21449;BME280;10885;52.830;13.788;2024-01-30T16:36:00;102211.66;;;7.12;64.54
21449;BME280;10885;52.830;13.788;2024-01-30T16:41:03;102228.59;;;7.11;64.61
21449;BME280;10885;52.830;13.788;2024-01-30T16:46:06;102217.63;;;7.12;64.63
21449;BME280;10885;52.830;13.788;2024-01-30T16:51:09;102211.97;;;7.15;64.38
21449;BME280;10885;52.830;13.788;2024-01-30T16:56:11;102215.09;;;7.12;64.81
21449;BME280;10885;52.830;13.788;2024-01-30T17:01:14;102221.84;;;7.12;64.40
21449;BME280;10885;52.830;13.788;2024-01-30T17:06:17;102217.78;;;7.14;64.03
21449;BME280;10885;52.830;13.788;2024-01-30T17:11:19;102223.78;;;7.14;64.58
21449;BME280;10885;52.830;13.788;2024-01-30T17:16:22;102222.00;;;7.13;65.59
21449;BME280;10885;52.830;13.788;2024-01-30T17:21:25;102214.53;;;7.15;65.20
21449;BME280;10885;52.830;13.788;2024-01-30T17:26:28;102217.97;;;7.15;65.15
21449;BME280;10885;52.830;13.788;2024-01-30T17:31:31;102223.06;;;7.15;65.85
21449;BME280;10885;52.830;13.788;2024-01-30T17:36:34;102220.34;;;7.14;65.48
21449;BME280;10885;52.830;13.788;2024-01-30T17:41:36;102225.44;;;7.14;65.76
21449;BME280;10885;52.830;13.788;2024-01-30T17:46:40;102214.53;;;7.15;66.31
21449;BME280;10885;52.830;13.788;2024-01-30T17:51:44;102225.00;;;7.18;66.38
21449;BME280;10885;52.830;13.788;2024-01-30T17:56:49;102205.41;;;7.17;65.94
21449;BME280;10885;52.830;13.788;2024-01-30T18:01:52;102219.47;;;7.22;64.93
21449;BME280;10885;52.830;13.788;2024-01-30T18:06:55;102236.06;;;7.18;66.58
21449;BME280;10885;52.830;13.788;2024-01-30T18:11:59;102242.09;;;7.19;66.78
21449;BME280;10885;52.830;13.788;2024-01-30T18:17:02;102240.16;;;7.25;66.92
21449;BME280;10885;52.830;13.788;2024-01-30T18:22:05;102247.66;;;7.32;67.01
21449;BME280;10885;52.830;13.788;2024-01-30T18:27:07;102252.47;;;7.38;66.97
21449;BME280;10885;52.830;13.788;2024-01-30T18:32:11;102253.84;;;7.43;67.06
21449;BME280;10885;52.830;13.788;2024-01-30T18:37:14;102250.09;;;7.48;67.53
21449;BME280;10885;52.830;13.788;2024-01-30T18:42:16;102254.91;;;7.54;67.12
21449;BME280;10885;52.830;13.788;2024-01-30T18:47:20;102258.06;;;7.60;67.32
21449;BME280;10885;52.830;13.788;2024-01-30T18:52:23;102254.50;;;7.67;67.23
21449;BME280;10885;52.830;13.788;2024-01-30T18:57:26;102256.63;;;7.71;67.61
21449;BME280;10885;52.830;13.788;2024-01-30T19:02:28;102245.53;;;7.79;67.60
21449;BME280;10885;52.830;13.788;2024-01-30T19:07:31;102257.22;;;7.86;67.59
21449;BME280;10885;52.830;13.788;2024-01-30T19:12:33;102268.16;;;8.02;68.85
21449;BME280;10885;52.830;13.788;2024-01-30T19:17:39;102268.94;;;8.10;67.52
21449;BME280;10885;52.830;13.788;2024-01-30T19:22:42;102257.38;;;8.13;67.32
21449;BME280;10885;52.830;13.788;2024-01-30T19:27:45;102265.63;;;8.20;68.01
21449;BME280;10885;52.830;13.788;2024-01-30T19:32:47;102256.03;;;8.26;67.74
21449;BME280;10885;52.830;13.788;2024-01-30T19:37:50;102257.66;;;8.34;68.28
21449;BME280;10885;52.830;13.788;2024-01-30T19:42:52;102260.84;;;8.40;68.61
21449;BME280;10885;52.830;13.788;2024-01-30T19:47:55;102261.53;;;8.48;68.68
21449;BME280;10885;52.830;13.788;2024-01-30T19:52:58;102254.63;;;8.55;68.02
21449;BME280;10885;52.830;13.788;2024-01-30T19:58:00;102262.00;;;8.61;68.83
21449;BME280;10885;52.830;13.788;2024-01-30T20:03:05;102250.72;;;8.59;69.49
21449;BME280;10885;52.830;13.788;2024-01-30T20:08:08;102251.03;;;8.62;70.04
21449;BME280;10885;52.830;13.788;2024-01-30T20:13:11;102258.81;;;8.64;70.04
21449;BME280;10885;52.830;13.788;2024-01-30T20:18:13;102254.94;;;8.59;70.38
21449;BME280;10885;52.830;13.788;2024-01-30T20:23:16;102258.38;;;8.59;70.50
21449;BME280;10885;52.830;13.788;2024-01-30T20:28:19;102264.38;;;8.60;71.28
21449;BME280;10885;52.830;13.788;2024-01-30T20:33:21;102255.69;;;8.57;71.12
21449;BME280;10885;52.830;13.788;2024-01-30T20:38:24;102247.13;;;8.57;70.24
21449;BME280;10885;52.830;13.788;2024-01-30T20:43:27;102251.66;;;8.51;70.69
21449;BME280;10885;52.830;13.788;2024-01-30T20:48:30;102252.09;;;8.47;71.94
21449;BME280;10885;52.830;13.788;2024-01-30T20:53:32;102251.97;;;8.45;71.44
21449;BME280;10885;52.830;13.788;2024-01-30T20:58:37;102251.06;;;8.45;71.81
21449;BME280;10885;52.830;13.788;2024-01-30T21:03:40;102252.41;;;8.41;71.62
21449;BME280;10885;52.830;13.788;2024-01-30T21:08:43;102257.22;;;8.38;71.89
21449;BME280;10885;52.830;13.788;2024-01-30T21:13:46;102260.53;;;8.37;72.26
21449;BME280;10885;52.830;13.788;2024-01-30T21:18:48;102259.47;;;8.35;72.07
21449;BME280;10885;52.830;13.788;2024-01-30T21:23:51;102261.72;;;8.32;72.94
21449;BME280;10885;52.830;13.788;2024-01-30T21:28:54;102260.22;;;8.34;73.63
21449;BME280;10885;52.830;13.788;2024-01-30T21:33:57;102265.63;;;8.37;73.41
21449;BME280;10885;52.830;13.788;2024-01-30T21:39:00;102270.28;;;8.32;74.45
21449;BME280;10885;52.830;13.788;2024-01-30T21:44:02;102275.09;;;8.29;73.75
21449;BME280;10885;52.830;13.788;2024-01-30T21:49:05;102281.84;;;8.29;73.15
21449;BME280;10885;52.830;13.788;2024-01-30T21:54:09;102278.53;;;8.30;74.43
21449;BME280;10885;52.830;13.788;2024-01-30T21:59:11;102259.16;;;8.32;72.57
21449;BME280;10885;52.830;13.788;2024-01-30T22:04:15;102268.91;;;8.36;73.97
21449;BME280;10885;52.830;13.788;2024-01-30T22:09:19;102275.97;;;8.30;74.93
21449;BME280;10885;52.830;13.788;2024-01-30T22:14:24;102274.81;;;8.26;75.20
21449;BME280;10885;52.830;13.788;2024-01-30T22:19:26;102278.84;;;8.24;75.86
21449;BME280;10885;52.830;13.788;2024-01-30T22:24:30;102272.69;;;8.22;75.46
21449;BME280;10885;52.830;13.788;2024-01-30T22:29:32;102268.50;;;8.23;75.30
21449;BME280;10885;52.830;13.788;2024-01-30T22:34:35;102275.09;;;8.29;75.72
21449;BME280;10885;52.830;13.788;2024-01-30T22:39:37;102272.66;;;8.40;75.99
21449;BME280;10885;52.830;13.788;2024-01-30T22:44:40;102275.22;;;8.48;75.35
